Time;durP1;ratioP1;P1;durP2;ratioP2;P2;SDS_P1;SDS_P2;PMS_P1;PMS_P2;Temp;Humidity;BMP_temperature;BMP_pressure;BME280_temperature;BME280_humidity;BME280_pressure;Samples;Min_cycle;Max_cycle;Signal;HPM_P1;HPM_P2
2023/01/28 00:01:45;;;;;;;7.60;4.05;;;-1.20;99.90;;;;;;5081547;28;20389;-70
2023/01/28 00:04:13;;;;;;;5.90;3.42;;;-1.10;99.90;;;;;;5086474;28;20079;-72
2023/01/28 00:06:40;;;;;;;6.03;3.70;;;-1.10;99.90;;;;;;5070626;28;20474;-71
2023/01/28 00:09:08;;;;;;;4.57;3.20;;;-1.10;99.90;;;;;;5084367;28;20051;-72
2023/01/28 00:11:36;;;;;;;4.03;3.63;;;-1.20;99.90;;;;;;5096198;28;20044;-71
2023/01/28 00:14:04;;;;;;;6.10;4.57;;;-1.30;99.90;;;;;;5072083;28;20703;-71
2023/01/28 00:16:32;;;;;;;5.95;4.35;;;-1.30;99.90;;;;;;5075531;28;20041;-71
2023/01/28 00:19:01;;;;;;;5.35;4.55;;;-1.20;99.90;;;;;;5086589;28;20052;-72
2023/01/28 00:21:28;;;;;;;5.25;3.80;;;-1.20;99.90;;;;;;5073598;28;20530;-71
2023/01/28 00:23:56;;;;;;;6.75;4.40;;;-1.10;99.90;;;;;;5080460;28;20051;-71
2023/01/28 00:26:25;;;;;;;5.13;4.63;;;-1.00;99.90;;;;;;5092631;28;20040;-71
2023/01/28 00:28:52;;;;;;;8.25;3.67;;;-1.00;99.90;;;;;;5099705;28;20054;-72
2023/01/28 00:31:23;;;;;;;3.67;3.38;;;-1.00;99.90;;;;;;5091974;28;20393;-73
2023/01/28 00:33:51;;;;;;;3.95;3.55;;;-1.10;99.90;;;;;;5089686;28;20043;-71
2023/01/28 00:36:22;;;;;;;4.50;3.72;;;-1.20;99.90;;;;;;5074900;28;20493;-71
2023/01/28 00:38:51;;;;;;;3.10;2.90;;;-1.30;99.90;;;;;;5101514;28;20055;-72
2023/01/28 00:41:21;;;;;;;7.10;3.53;;;-1.40;99.90;;;;;;5097437;28;20055;-71
2023/01/28 00:43:52;;;;;;;8.35;3.92;;;-1.50;99.90;;;;;;5074940;28;20047;-71
2023/01/28 00:46:22;;;;;;;4.45;3.83;;;-1.60;99.90;;;;;;5091013;28;20051;-72
2023/01/28 00:48:50;;;;;;;4.97;3.53;;;-1.70;99.90;;;;;;5085749;28;20040;-72
2023/01/28 00:51:20;;;;;;;5.25;4.20;;;-1.80;99.90;;;;;;5074387;28;20047;-73
2023/01/28 00:53:49;;;;;;;10.03;4.83;;;-1.80;99.90;;;;;;5075996;28;20045;-72
2023/01/28 00:56:19;;;;;;;5.43;4.75;;;-1.90;99.90;;;;;;5089398;28;20043;-73
2023/01/28 00:58:47;;;;;;;5.32;4.43;;;-2.00;99.90;;;;;;5093699;28;20154;-72
2023/01/28 01:01:18;;;;;;;6.50;5.43;;;-2.10;99.90;;;;;;5095382;28;20539;-73
2023/01/28 01:03:46;;;;;;;6.13;5.57;;;-2.10;99.90;;;;;;5080067;28;20049;-72
2023/01/28 01:06:16;;;;;;;8.43;4.88;;;-2.10;99.90;;;;;;5101640;28;20071;-72
2023/01/28 01:08:49;;;;;;;5.60;5.07;;;-2.10;99.90;;;;;;5091558;28;20746;-72
2023/01/28 01:11:18;;;;;;;5.97;5.20;;;-2.20;99.90;;;;;;5093469;28;20050;-72
2023/01/28 01:13:53;;;;;;;7.57;5.88;;;-2.20;99.90;;;;;;5094422;28;20046;-72
2023/01/28 01:16:22;;;;;;;5.65;4.88;;;-2.10;99.90;;;;;;5067487;28;20504;-72
2023/01/28 01:18:51;;;;;;;6.22;5.60;;;-2.10;99.90;;;;;;5073173;28;20055;-71
2023/01/28 01:21:22;;;;;;;6.88;5.32;;;-2.00;99.90;;;;;;5085061;28;20047;-72
2023/01/28 01:23:52;;;;;;;5.70;5.20;;;-2.00;99.90;;;;;;5089517;28;20048;-73
2023/01/28 01:26:20;;;;;;;10.07;5.32;;;-2.00;99.90;;;;;;5073672;28;20056;-72
2023/01/28 01:28:48;;;;;;;7.18;5.28;;;-2.00;99.90;;;;;;5071742;28;20068;-71
2023/01/28 01:31:18;;;;;;;7.90;5.45;;;-2.10;99.90;;;;;;5074829;28;20058;-72
2023/01/28 01:33:49;;;;;;;7.35;4.43;;;-2.10;99.90;;;;;;5111111;28;20054;-72
2023/01/28 01:36:20;;;;;;;7.53;5.50;;;-2.10;99.90;;;;;;5097978;28;20580;-72
2023/01/28 01:38:48;;;;;;;6.18;5.25;;;-2.20;99.90;;;;;;5100210;28;20397;-73
2023/01/28 01:41:25;;;;;;;7.47;5.72;;;-2.20;99.90;;;;;;5088007;28;20447;-72
2023/01/28 01:43:55;;;;;;;6.93;5.70;;;-2.30;99.90;;;;;;5107536;28;20052;-72
2023/01/28 01:46:32;;;;;;;5.32;4.82;;;-2.40;99.90;;;;;;5091885;28;20069;-72
2023/01/28 01:49:11;;;;;;;7.82;6.25;;;-2.50;99.90;;;;;;5091011;28;20051;-72
2023/01/28 01:51:40;;;;;;;6.80;5.68;;;-2.50;99.90;;;;;;5077040;28;20501;-72
2023/01/28 01:54:08;;;;;;;5.85;5.30;;;-2.60;99.90;;;;;;5089409;28;20063;-71
2023/01/28 01:56:43;;;;;;;5.75;5.25;;;-2.50;99.90;;;;;;5073000;28;20559;-72
2023/01/28 01:59:15;;;;;;;8.52;5.80;;;-2.50;99.90;;;;;;5077853;28;20048;-72
2023/01/28 02:01:45;;;;;;;8.52;5.68;;;-2.40;99.90;;;;;;5082303;28;20080;-72
2023/01/28 02:04:20;;;;;;;7.28;5.80;;;-2.40;99.90;;;;;;5087826;28;20056;-72
2023/01/28 02:06:48;;;;;;;6.95;6.25;;;-2.40;99.90;;;;;;5091866;28;20059;-72
2023/01/28 02:09:25;;;;;;;9.20;6.25;;;-2.50;99.90;;;;;;5106853;28;20044;-71
2023/01/28 02:11:57;;;;;;;8.18;7.13;;;-2.60;99.90;;;;;;5072908;28;20064;-71
2023/01/28 02:14:28;;;;;;;6.80;5.60;;;-2.60;99.90;;;;;;5073429;28;20056;-72
2023/01/28 02:17:16;;;;;;;8.18;6.53;;;-2.70;99.90;;;;;;5058080;28;20107;-71
2023/01/28 02:19:50;;;;;;;7.47;6.78;;;-2.70;99.90;;;;;;5080894;28;20052;-71
2023/01/28 02:22:55;;;;;;;7.78;7.00;;;-2.70;99.90;;;;;;5092521;28;20056;-73
2023/01/28 02:25:57;;;;;;;12.63;6.45;;;-2.70;99.90;;;;;;5051566;28;20044;-71
2023/01/28 02:28:34;;;;;;;7.97;6.65;;;-2.70;99.90;;;;;;5073215;28;20105;-71
2023/01/28 02:31:11;;;;;;;7.25;6.55;;;-2.80;99.90;;;;;;5086559;28;20052;-72
2023/01/28 02:33:46;;;;;;;9.00;5.63;;;-2.80;99.90;;;;;;5088010;28;20058;-71
2023/01/28 02:36:24;;;;;;;6.90;6.18;;;-2.80;99.90;;;;;;5090400;28;20044;-71
2023/01/28 02:38:54;;;;;;;10.48;6.57;;;-2.80;99.90;;;;;;5107951;28;20135;-78
2023/01/28 02:41:30;;;;;;;6.82;6.13;;;-2.90;99.90;;;;;;5089777;28;20575;-79
2023/01/28 02:44:03;;;;;;;9.40;7.07;;;-2.90;99.90;;;;;;5054585;28;20060;-78
2023/01/28 02:49:29;;;;;;;6.93;6.25;;;-3.00;99.90;;;;;;5081735;28;20059;-78
2023/01/28 02:53:39;;;;;;;6.60;6.05;;;-3.00;99.90;;;;;;5094393;28;20051;-77
2023/01/28 02:55:22;;;;;;;9.45;6.88;;;-3.00;99.90;;;;;;5072578;28;20044;-77
2023/01/28 02:58:01;;;;;;;6.70;6.00;;;-3.00;99.90;;;;;;5073708;28;20080;-77
2023/01/28 03:00:50;;;;;;;6.65;6.03;;;-3.10;99.90;;;;;;5072258;28;20048;-80
2023/01/28 03:03:28;;;;;;;6.38;5.78;;;-3.00;99.90;;;;;;5086377;28;20053;-78
2023/01/28 03:06:06;;;;;;;5.95;5.35;;;-2.90;99.90;;;;;;5069015;28;20040;-78
2023/01/28 03:36:49;;;;;;;6.47;5.88;;;-2.80;99.90;;;;;;5076673;28;20048;-78
2023/01/28 03:39:39;;;;;;;5.03;4.53;;;-2.80;99.90;;;;;;5041751;28;20098;-78
2023/01/28 03:42:13;;;;;;;6.53;5.03;;;-2.80;99.90;;;;;;5080046;28;20040;-79
2023/01/28 03:44:54;;;;;;;6.80;5.25;;;-2.90;99.90;;;;;;5075207;28;20051;-76
2023/01/28 03:47:24;;;;;;;6.40;5.43;;;-2.90;99.90;;;;;;5078097;28;20049;-79
2023/01/28 03:49:58;;;;;;;6.22;5.60;;;-3.00;99.90;;;;;;5080000;28;20048;-78
2023/01/28 03:52:29;;;;;;;5.93;5.25;;;-3.10;99.90;;;;;;5094002;28;20044;-78
2023/01/28 03:55:12;;;;;;;10.90;5.57;;;-3.10;99.90;;;;;;5087651;28;20058;-77
2023/01/28 03:57:41;;;;;;;6.28;5.65;;;-3.10;99.90;;;;;;5072735;28;20048;-78
2023/01/28 04:00:10;;;;;;;6.93;5.43;;;-3.10;99.90;;;;;;5072286;28;20517;-78
2023/01/28 04:02:44;;;;;;;10.43;6.40;;;-3.10;99.90;;;;;;5087450;28;20058;-78
2023/01/28 04:05:19;;;;;;;7.90;5.82;;;-3.10;99.90;;;;;;5074502;28;20057;-77
2023/01/28 04:07:50;;;;;;;10.50;5.78;;;-3.20;99.90;;;;;;5080302;28;20078;-78
2023/01/28 04:10:29;;;;;;;9.85;6.57;;;-3.20;99.90;;;;;;5088294;28;20048;-77
2023/01/28 04:13:12;;;;;;;9.38;6.30;;;-3.20;99.90;;;;;;5103274;28;20098;-77
2023/01/28 04:15:40;;;;;;;11.30;6.82;;;-3.20;99.90;;;;;;5088461;28;20052;-77
2023/01/28 04:18:10;;;;;;;11.00;6.20;;;-3.10;99.90;;;;;;5089010;28;20555;-76
2023/01/28 04:20:40;;;;;;;9.43;6.25;;;-3.00;99.90;;;;;;5080676;28;20052;-77
2023/01/28 04:23:08;;;;;;;14.05;6.80;;;-3.00;99.90;;;;;;5070463;28;20331;-78
2023/01/28 04:25:36;;;;;;;12.20;6.80;;;-3.00;99.90;;;;;;5088457;28;20058;-76
2023/01/28 04:28:06;;;;;;;14.18;7.40;;;-3.00;99.90;;;;;;5084617;28;20048;-76
2023/01/28 04:30:35;;;;;;;14.55;8.38;;;-2.90;99.90;;;;;;5077005;28;20515;-76
2023/01/28 04:33:11;;;;;;;13.43;7.30;;;-2.90;99.90;;;;;;5080217;28;20597;-77
2023/01/28 04:36:10;;;;;;;11.75;6.13;;;-2.90;99.90;;;;;;5076335;28;20099;-77
2023/01/28 04:39:03;;;;;;;12.32;6.28;;;-2.90;99.90;;;;;;5086509;28;20080;-77
2023/01/28 04:41:43;;;;;;;15.15;7.78;;;-2.90;99.90;;;;;;5085379;28;20097;-77
2023/01/28 04:44:19;;;;;;;20.60;9.55;;;-2.90;99.90;;;;;;5067430;28;20513;-77
2023/01/28 04:47:15;;;;;;;15.20;7.60;;;-3.00;99.90;;;;;;5068505;28;20417;-80
2023/01/28 04:49:56;;;;;;;16.17;8.55;;;-3.00;99.90;;;;;;5084369;28;20047;-77
2023/01/28 04:52:44;;;;;;;20.75;10.13;;;-3.00;99.90;;;;;;5078888;28;20056;-73
2023/01/28 04:55:37;;;;;;;17.20;8.38;;;-3.00;99.90;;;;;;5072805;28;20130;-71
2023/01/28 04:58:06;;;;;;;18.85;9.25;;;-2.90;99.90;;;;;;5071751;28;20052;-71
2023/01/28 05:00:41;;;;;;;18.88;9.40;;;-2.90;99.90;;;;;;5084250;28;20360;-77
2023/01/28 05:03:10;;;;;;;18.05;9.10;;;-2.80;99.90;;;;;;5088371;28;20110;-73
2023/01/28 05:05:37;;;;;;;23.20;10.73;;;-2.80;99.90;;;;;;5087880;28;20068;-73
2023/01/28 05:08:20;;;;;;;15.25;7.50;;;-2.80;99.90;;;;;;5083483;28;20048;-77
2023/01/28 05:10:51;;;;;;;13.98;7.63;;;-2.80;99.90;;;;;;5075018;28;20477;-73
2023/01/28 05:13:20;;;;;;;17.15;8.43;;;-2.90;99.90;;;;;;5092535;28;20500;-73
2023/01/28 05:15:54;;;;;;;18.95;8.40;;;-3.00;99.90;;;;;;5075466;28;20043;-71
2023/01/28 05:18:24;;;;;;;15.82;8.43;;;-3.00;99.90;;;;;;5072542;28;20045;-70
2023/01/28 05:21:11;;;;;;;17.30;8.80;;;-3.00;99.90;;;;;;5091129;28;20050;-72
2023/01/28 05:23:44;;;;;;;15.32;8.38;;;-2.90;99.90;;;;;;5093270;28;20055;-71
2023/01/28 05:26:12;;;;;;;15.00;8.82;;;-2.80;99.90;;;;;;5091952;28;20047;-71
2023/01/28 05:28:40;;;;;;;13.38;7.72;;;-2.90;99.90;;;;;;5090856;28;20045;-77
2023/01/28 05:31:11;;;;;;;12.98;7.88;;;-2.90;99.90;;;;;;5106718;28;20048;-77
2023/01/28 05:33:39;;;;;;;12.32;6.15;;;-3.00;99.90;;;;;;5090380;28;20517;-77
2023/01/28 05:36:10;;;;;;;11.43;6.72;;;-3.10;99.90;;;;;;5089853;28;20036;-77
2023/01/28 05:38:40;;;;;;;14.00;7.55;;;-3.10;99.90;;;;;;5089525;28;20378;-79
2023/01/28 05:41:08;;;;;;;14.10;7.63;;;-3.10;99.90;;;;;;5090366;28;20052;-78
2023/01/28 05:43:36;;;;;;;13.52;6.43;;;-3.10;99.90;;;;;;5074103;28;20559;-79
2023/01/28 05:46:17;;;;;;;14.82;6.38;;;-3.00;99.90;;;;;;5089463;28;20101;-78
2023/01/28 05:49:17;;;;;;;11.23;7.15;;;-3.00;99.90;;;;;;5044860;28;20427;-77
2023/01/28 05:52:03;;;;;;;10.90;5.78;;;-3.10;99.90;;;;;;5084430;28;20059;-78
2023/01/28 05:54:33;;;;;;;8.60;5.32;;;-3.10;99.90;;;;;;5083178;28;20135;-78
2023/01/28 05:57:01;;;;;;;10.65;6.15;;;-3.20;99.90;;;;;;5091626;28;20072;-76
2023/01/28 05:59:30;;;;;;;9.15;5.78;;;-3.10;99.90;;;;;;5083019;28;20044;-79
2023/01/28 06:01:59;;;;;;;8.65;5.45;;;-3.20;99.90;;;;;;5071473;28;20045;-78
2023/01/28 06:04:27;;;;;;;7.28;4.35;;;-3.20;99.90;;;;;;5072028;28;20428;-79
2023/01/28 06:06:54;;;;;;;6.43;4.03;;;-3.20;99.90;;;;;;5076064;28;20059;-77
2023/01/28 06:09:22;;;;;;;6.93;4.05;;;-3.20;99.90;;;;;;5091014;28;20048;-77
2023/01/28 06:11:53;;;;;;;12.27;3.67;;;-3.30;99.90;;;;;;5103817;28;20053;-79
2023/01/28 06:14:23;;;;;;;6.72;4.00;;;-3.30;99.90;;;;;;5081927;28;20466;-79
2023/01/28 06:17:06;;;;;;;6.35;4.97;;;-3.30;99.90;;;;;;5074624;28;20161;-77
2023/01/28 06:19:54;;;;;;;5.88;4.60;;;-3.40;99.90;;;;;;5089210;28;20217;-79
2023/01/28 06:22:22;;;;;;;4.97;4.07;;;-3.40;99.90;;;;;;5092332;28;20101;-82
2023/01/28 06:24:50;;;;;;;4.30;3.88;;;-3.40;99.90;;;;;;5102074;28;20055;-70
2023/01/28 06:27:19;;;;;;;10.63;4.55;;;-3.40;99.90;;;;;;5088895;28;20044;-72
2023/01/28 06:29:47;;;;;;;13.38;4.72;;;-3.40;99.90;;;;;;5080526;28;20119;-71
2023/01/28 06:32:14;;;;;;;13.48;4.32;;;-3.30;99.90;;;;;;5076881;28;20094;-72
2023/01/28 06:34:42;;;;;;;7.13;4.75;;;-3.30;99.90;;;;;;5090003;28;20093;-73
2023/01/28 06:37:13;;;;;;;8.35;4.47;;;-3.20;99.90;;;;;;5091598;28;20504;-73
2023/01/28 06:39:40;;;;;;;5.82;4.53;;;-3.10;99.90;;;;;;5092197;28;20059;-72
2023/01/28 06:42:08;;;;;;;8.63;4.28;;;-3.20;99.90;;;;;;5073977;28;20055;-72
2023/01/28 06:44:38;;;;;;;5.55;4.55;;;-3.20;99.90;;;;;;5083717;28;20055;-73
2023/01/28 06:47:08;;;;;;;4.43;3.90;;;-3.20;99.90;;;;;;5089166;28;20044;-80
2023/01/28 06:49:35;;;;;;;4.00;3.70;;;-3.20;99.90;;;;;;5070074;28;20071;-80
2023/01/28 06:52:04;;;;;;;4.47;4.13;;;-3.30;99.90;;;;;;5090328;28;20507;-79
2023/01/28 06:54:31;;;;;;;4.10;3.53;;;-3.30;99.90;;;;;;5107571;28;20131;-79
2023/01/28 06:56:59;;;;;;;3.90;3.50;;;-3.40;99.90;;;;;;5088933;28;20067;-81
2023/01/28 06:59:27;;;;;;;4.70;3.83;;;-3.40;99.90;;;;;;5091899;28;20051;-80
2023/01/28 07:01:58;;;;;;;5.15;3.50;;;-3.40;99.90;;;;;;5087433;28;20098;-80
2023/01/28 07:04:26;;;;;;;5.63;3.83;;;-3.40;99.90;;;;;;5090618;28;20079;-82
2023/01/28 07:06:54;;;;;;;8.85;4.35;;;-3.40;99.90;;;;;;5092287;28;20143;-81
2023/01/28 07:09:21;;;;;;;9.10;4.35;;;-3.40;99.90;;;;;;5091418;28;20048;-81
2023/01/28 07:11:49;;;;;;;4.93;4.45;;;-3.40;99.90;;;;;;5092047;28;20048;-82
2023/01/28 07:14:16;;;;;;;8.05;4.47;;;-3.20;99.90;;;;;;5090085;28;20121;-80
2023/01/28 07:16:43;;;;;;;7.85;4.85;;;-3.20;99.90;;;;;;5090354;28;20048;-83
2023/01/28 07:19:12;;;;;;;3.45;3.15;;;-3.20;99.90;;;;;;5091711;28;20527;-80
2023/01/28 07:21:49;;;;;;;6.07;4.93;;;-3.20;99.90;;;;;;5091976;28;20044;-81
2023/01/28 07:24:17;;;;;;;4.10;3.70;;;-3.20;99.90;;;;;;5090904;28;20043;-81
2023/01/28 07:26:48;;;;;;;4.60;3.83;;;-3.20;99.90;;;;;;5090450;28;20055;-79
2023/01/28 07:29:23;;;;;;;4.00;3.60;;;-3.30;99.90;;;;;;5072144;28;20056;-84
2023/01/28 07:31:57;;;;;;;4.22;3.33;;;-3.40;99.90;;;;;;5063739;28;20048;-75
2023/01/28 07:34:41;;;;;;;4.57;3.90;;;-3.50;99.90;;;;;;5082218;28;20514;-74
2023/01/28 07:37:09;;;;;;;5.60;3.83;;;-3.40;99.90;;;;;;5077366;28;20092;-74
2023/01/28 07:39:37;;;;;;;6.00;4.00;;;-3.40;99.90;;;;;;5082562;28;20396;-79
2023/01/28 07:42:05;;;;;;;6.18;5.22;;;-3.40;99.90;;;;;;5086803;28;20054;-74
2023/01/28 07:44:37;;;;;;;4.95;4.35;;;-3.30;99.90;;;;;;5079426;28;20522;-74
2023/01/28 07:47:06;;;;;;;6.65;5.00;;;-3.40;99.90;;;;;;5082959;28;20055;-74
2023/01/28 07:49:34;;;;;;;11.73;7.00;;;-3.30;99.90;;;;;;5081236;28;20140;-73
2023/01/28 07:52:07;;;;;;;7.63;5.55;;;-3.30;99.90;;;;;;5081448;28;20063;-74
2023/01/28 07:54:35;;;;;;;7.93;4.57;;;-3.20;99.90;;;;;;5079064;28;20049;-73
2023/01/28 07:57:08;;;;;;;4.75;4.25;;;-3.20;99.90;;;;;;5086814;28;20062;-79
2023/01/28 07:59:43;;;;;;;8.73;5.45;;;-3.20;99.90;;;;;;5083391;28;20063;-73
2023/01/28 08:02:13;;;;;;;13.57;6.75;;;-3.20;99.90;;;;;;5088744;28;20055;-78
2023/01/28 08:04:41;;;;;;;14.85;5.90;;;-3.30;99.90;;;;;;5089175;28;20105;-80
2023/01/28 08:07:12;;;;;;;13.50;6.45;;;-3.30;99.90;;;;;;5087760;28;20087;-73
2023/01/28 08:09:56;;;;;;;19.60;8.48;;;-3.30;99.90;;;;;;5079614;28;20101;-73
2023/01/28 08:12:34;;;;;;;13.90;7.47;;;-3.20;99.90;;;;;;5077397;28;20058;-72
2023/01/28 08:15:10;;;;;;;20.55;9.10;;;-3.10;99.90;;;;;;5070584;28;20505;-75
2023/01/28 08:17:37;;;;;;;22.17;9.13;;;-3.10;99.90;;;;;;5099864;28;20071;-73
2023/01/28 08:20:07;;;;;;;24.00;9.68;;;-3.00;99.90;;;;;;5089035;28;20071;-79
2023/01/28 08:22:36;;;;;;;14.35;7.78;;;-3.00;99.90;;;;;;5090647;28;20059;-81
2023/01/28 08:25:04;;;;;;;21.75;8.65;;;-3.00;99.90;;;;;;5080319;28;20150;-80
2023/01/28 08:27:31;;;;;;;21.38;9.80;;;-3.10;99.90;;;;;;5081289;28;20432;-75
2023/01/28 08:29:59;;;;;;;27.88;12.85;;;-3.10;99.90;;;;;;5083921;28;20056;-72
2023/01/28 08:32:26;;;;;;;16.35;7.35;;;-3.10;99.90;;;;;;5079225;28;20789;-75
2023/01/28 08:34:54;;;;;;;15.43;6.53;;;-3.10;99.90;;;;;;5085251;28;20044;-75
2023/01/28 08:37:22;;;;;;;16.02;6.97;;;-3.00;99.90;;;;;;5094339;28;20059;-73
2023/01/28 08:39:51;;;;;;;14.90;7.43;;;-3.00;99.90;;;;;;5093352;28;20044;-73
2023/01/28 08:42:21;;;;;;;19.52;7.65;;;-3.00;99.90;;;;;;5100932;28;20133;-74
2023/01/28 08:44:49;;;;;;;15.88;7.20;;;-3.00;99.90;;;;;;5072600;28;20053;-74
2023/01/28 08:47:17;;;;;;;19.83;8.57;;;-2.90;99.90;;;;;;5073817;28;20065;-72
2023/01/28 08:49:45;;;;;;;12.93;6.68;;;-2.90;99.90;;;;;;5073160;28;20044;-79
2023/01/28 08:52:13;;;;;;;13.60;7.20;;;-2.80;99.90;;;;;;5086809;28;20033;-80
2023/01/28 08:54:41;;;;;;;11.32;6.32;;;-2.70;99.90;;;;;;5085961;28;20059;-79
2023/01/28 08:57:10;;;;;;;8.75;5.32;;;-2.60;99.90;;;;;;5092257;28;20071;-80
2023/01/28 08:59:43;;;;;;;14.18;7.40;;;-2.60;99.90;;;;;;5091554;28;20052;-80
2023/01/28 09:02:14;;;;;;;11.32;6.80;;;-2.60;99.90;;;;;;5105956;28;20129;-81
2023/01/28 09:04:42;;;;;;;9.07;5.45;;;-2.50;99.90;;;;;;5083531;28;20059;-81
2023/01/28 09:07:09;;;;;;;15.10;6.82;;;-2.40;99.90;;;;;;5091379;28;20059;-82
2023/01/28 09:09:37;;;;;;;11.02;5.38;;;-2.40;99.90;;;;;;5097531;28;20046;-80
2023/01/28 09:12:07;;;;;;;16.58;7.78;;;-2.40;99.90;;;;;;5101428;28;20048;-75
2023/01/28 09:14:39;;;;;;;7.50;5.38;;;-2.40;99.90;;;;;;5092277;28;20113;-81
2023/01/28 09:17:06;;;;;;;7.97;5.35;;;-2.40;99.90;;;;;;5082661;28;20064;-80
2023/01/28 09:19:34;;;;;;;10.32;6.15;;;-2.30;99.90;;;;;;5078524;28;20047;-81
2023/01/28 09:22:04;;;;;;;10.82;5.70;;;-2.30;99.90;;;;;;5079899;28;20083;-81
2023/01/28 09:24:32;;;;;;;8.68;5.38;;;-2.40;99.90;;;;;;5094180;28;20102;-80
2023/01/28 09:26:59;;;;;;;14.98;6.55;;;-2.40;99.90;;;;;;5086635;28;20047;-79
2023/01/28 09:29:27;;;;;;;19.30;8.50;;;-2.50;99.90;;;;;;5094795;28;20047;-80
2023/01/28 09:31:56;;;;;;;17.08;7.07;;;-2.50;99.90;;;;;;5091389;28;20130;-72
2023/01/28 09:34:24;;;;;;;12.50;6.00;;;-2.50;99.90;;;;;;5087058;28;20135;-73
2023/01/28 09:36:52;;;;;;;21.45;8.18;;;-2.50;99.90;;;;;;5084841;28;20099;-74
2023/01/28 09:39:19;;;;;;;7.70;4.82;;;-2.50;99.90;;;;;;5081942;28;20463;-72
2023/01/28 09:41:54;;;;;;;14.43;5.90;;;-2.50;99.90;;;;;;5085409;28;20040;-72
2023/01/28 09:44:42;;;;;;;14.20;7.05;;;-2.50;99.90;;;;;;5072703;28;20369;-73
2023/01/28 09:47:22;;;;;;;12.40;6.57;;;-2.50;99.90;;;;;;5093689;28;20048;-72
2023/01/28 09:49:55;;;;;;;13.55;5.80;;;-2.50;99.90;;;;;;5082757;28;20500;-72
2023/01/28 09:52:24;;;;;;;;;;;-2.40;99.90;;;;;;5078316;28;20052;-72
2023/01/28 09:55:00;;;;;;;12.68;6.95;;;-2.50;99.90;;;;;;5090986;28;19935;-76
2023/01/28 09:57:37;;;;;;;14.25;6.43;;;-2.50;99.90;;;;;;5075235;28;20064;-78
2023/01/28 10:00:14;;;;;;;9.30;5.47;;;-2.50;99.90;;;;;;5093997;28;20049;-79
2023/01/28 10:03:01;;;;;;;13.48;5.93;;;-2.40;99.90;;;;;;5071995;28;20048;-79
2023/01/28 10:05:39;;;;;;;12.75;6.45;;;-2.40;99.90;;;;;;5079859;28;20471;-81
2023/01/28 10:08:25;;;;;;;10.35;5.97;;;-2.40;99.90;;;;;;5077900;28;20067;-77
2023/01/28 10:11:03;;;;;;;16.08;7.30;;;-2.20;99.90;;;;;;5099425;28;20056;-79
2023/01/28 10:13:41;;;;;;;12.63;6.50;;;-2.00;99.90;;;;;;5088103;28;20131;-79
2023/01/28 10:16:29;;;;;;;12.35;6.75;;;-2.00;99.90;;;;;;5094610;28;20109;-79
2023/01/28 10:19:06;;;;;;;25.65;9.95;;;-2.00;99.90;;;;;;5095985;28;20071;-78
2023/01/28 10:21:42;;;;;;;25.00;8.63;;;-2.10;99.90;;;;;;5080020;28;20052;-77
2023/01/28 10:24:18;;;;;;;21.77;7.85;;;-2.00;99.90;;;;;;5085004;28;20059;-78
2023/01/28 10:26:46;;;;;;;20.52;8.85;;;-2.00;99.90;;;;;;5080595;28;20056;-80
2023/01/28 10:29:18;;;;;;;20.17;8.05;;;-2.10;99.90;;;;;;5089739;28;20450;-78
2023/01/28 10:31:53;;;;;;;21.93;8.40;;;-2.20;99.90;;;;;;5079003;28;20611;-79
2023/01/28 10:34:26;;;;;;;13.15;6.00;;;-2.30;99.90;;;;;;5113255;28;20133;-81
2023/01/28 10:36:54;;;;;;;22.30;8.15;;;-2.30;99.90;;;;;;5109550;28;20855;-81
2023/01/28 10:39:24;;;;;;;29.55;11.40;;;-2.40;99.90;;;;;;5091112;28;20255;-80
2023/01/28 10:41:52;;;;;;;21.05;9.02;;;-2.40;99.90;;;;;;5104089;28;20063;-78
2023/01/28 10:44:36;;;;;;;16.85;7.63;;;-2.40;99.90;;;;;;5094390;28;20048;-80
2023/01/28 10:47:12;;;;;;;12.18;6.85;;;-2.30;99.90;;;;;;5112594;28;20503;-81
2023/01/28 10:49:46;;;;;;;20.42;9.40;;;-2.30;99.90;;;;;;5076092;28;20084;-81
2023/01/28 10:52:17;;;;;;;19.73;8.98;;;-2.30;99.90;;;;;;5088243;28;20097;-82
2023/01/28 10:54:49;;;;;;;11.38;5.90;;;-2.30;99.90;;;;;;5092279;28;20044;-84
2023/01/28 10:57:19;;;;;;;18.10;8.10;;;-2.40;99.90;;;;;;5092852;28;20056;-79
2023/01/28 10:59:48;;;;;;;29.75;12.27;;;-2.30;99.90;;;;;;5089026;28;20052;-82
2023/01/28 11:02:28;;;;;;;12.55;6.10;;;-2.30;99.90;;;;;;5065096;28;20045;-84
2023/01/28 11:05:07;;;;;;;19.08;7.10;;;-2.30;99.90;;;;;;5091761;28;20051;-82
2023/01/28 11:07:35;;;;;;;8.23;4.72;;;-2.40;99.90;;;;;;5079619;28;20064;-82
2023/01/28 11:10:03;;;;;;;18.85;7.00;;;-2.50;99.90;;;;;;5100980;28;20048;-85
2023/01/28 11:12:31;;;;;;;19.77;10.00;;;-2.50;99.90;;;;;;5088969;28;20060;-84
2023/01/28 11:15:01;;;;;;;14.45;6.97;;;-2.40;99.90;;;;;;5092802;28;20067;-83
2023/01/28 11:17:33;;;;;;;22.15;8.43;;;-2.40;99.90;;;;;;5094513;28;20135;-85
2023/01/28 11:20:13;;;;;;;15.27;7.13;;;-2.40;99.90;;;;;;5094875;28;20048;-83
2023/01/28 11:22:43;;;;;;;13.75;6.32;;;-2.40;99.90;;;;;;5083971;28;20044;-77
2023/01/28 11:25:19;;;;;;;14.02;6.80;;;-2.40;99.90;;;;;;5090383;28;20449;-77
2023/01/28 11:27:49;;;;;;;15.65;7.65;;;-2.40;99.90;;;;;;5100323;28;20049;-87
2023/01/28 11:30:24;;;;;;;10.90;6.03;;;-2.40;99.90;;;;;;5087732;28;20059;-83
2023/01/28 11:33:03;;;;;;;11.55;6.05;;;-2.40;99.90;;;;;;5090493;28;20113;-84
2023/01/28 11:35:32;;;;;;;13.88;5.68;;;-2.50;99.90;;;;;;5094398;28;20170;-78
2023/01/28 11:38:02;;;;;;;9.38;4.25;;;-2.50;99.90;;;;;;5091148;28;20058;-76
2023/01/28 11:40:32;;;;;;;7.47;3.85;;;-2.50;99.90;;;;;;5088749;28;20056;-74
2023/01/28 11:43:00;;;;;;;15.20;4.63;;;-2.50;99.90;;;;;;5086782;28;20051;-76
2023/01/28 11:45:38;;;;;;;5.28;3.30;;;-2.50;99.90;;;;;;5092502;28;20122;-83
2023/01/28 11:48:30;;;;;;;6.35;3.75;;;-2.40;99.90;;;;;;5093495;28;20084;-84
2023/01/28 11:51:11;;;;;;;4.78;2.33;;;-2.50;99.90;;;;;;5109159;28;20047;-86
2023/01/28 11:54:11;;;;;;;7.82;3.50;;;-2.50;99.90;;;;;;5111681;28;20047;-84
2023/01/28 11:56:58;;;;;;;5.03;2.95;;;-2.60;99.90;;;;;;5099582;28;20424;-83
2023/01/28 11:59:50;;;;;;;3.60;2.45;;;-2.70;99.90;;;;;;5094528;28;20052;-85
2023/01/28 12:02:39;;;;;;;3.85;2.75;;;-2.80;99.90;;;;;;5093090;28;20048;-84
2023/01/28 12:05:41;;;;;;;5.00;2.30;;;-2.80;99.90;;;;;;5083586;28;20492;-84
2023/01/28 12:08:24;;;;;;;4.05;2.38;;;-2.80;99.90;;;;;;5091836;28;20048;-83
2023/01/28 12:11:18;;;;;;;8.85;2.78;;;-2.90;99.90;;;;;;5084582;28;20052;-84
2023/01/28 12:13:58;;;;;;;3.45;2.97;;;-2.90;99.90;;;;;;5086300;28;20079;-85
2023/01/28 12:16:51;;;;;;;9.88;3.50;;;-2.80;99.90;;;;;;5087214;28;20489;-82
2023/01/28 12:19:39;;;;;;;8.95;3.53;;;-2.80;99.90;;;;;;5083739;28;20040;-81
2023/01/28 12:22:38;;;;;;;9.90;3.88;;;-2.80;99.90;;;;;;5088432;28;20453;-85
2023/01/28 12:25:36;;;;;;;7.70;3.85;;;-2.80;99.90;;;;;;5083353;28;20139;-77
2023/01/28 12:28:12;;;;;;;7.53;3.50;;;-2.80;99.90;;;;;;5093929;28;20059;-79
2023/01/28 12:31:03;;;;;;;4.95;3.33;;;-2.80;99.90;;;;;;5089861;28;20541;-83
2023/01/28 12:33:58;;;;;;;6.22;2.90;;;-2.80;99.90;;;;;;5088931;28;20059;-82
2023/01/28 12:36:46;;;;;;;3.47;2.20;;;-2.80;99.90;;;;;;5089400;28;20051;-85
2023/01/28 12:39:30;;;;;;;6.40;3.35;;;-2.80;99.90;;;;;;5089733;28;20048;-75
2023/01/28 12:42:09;;;;;;;2.95;2.53;;;-2.80;99.90;;;;;;5087526;28;20051;-84
2023/01/28 12:44:45;;;;;;;3.15;2.67;;;-2.70;99.90;;;;;;5087172;28;20058;-75
2023/01/28 12:47:20;;;;;;;7.90;2.92;;;-2.80;99.90;;;;;;5087387;28;20391;-80
2023/01/28 12:49:51;;;;;;;4.35;3.13;;;-2.80;99.90;;;;;;5087853;28;20625;-82
2023/01/28 12:52:23;;;;;;;6.05;2.78;;;-2.80;99.90;;;;;;5093598;28;20200;-80
2023/01/28 12:55:00;;;;;;;4.07;2.70;;;-2.80;99.90;;;;;;5087707;28;20048;-74
2023/01/28 12:57:31;;;;;;;6.55;3.45;;;-2.80;99.90;;;;;;5086956;28;20055;-74
2023/01/28 13:00:19;;;;;;;4.22;2.78;;;-2.90;99.90;;;;;;5087560;28;20039;-75
2023/01/28 13:02:56;;;;;;;9.98;3.22;;;-2.90;99.90;;;;;;5106434;28;20051;-78
2023/01/28 13:05:33;;;;;;;7.63;2.90;;;-2.80;99.90;;;;;;5088966;28;20462;-74
2023/01/28 13:08:08;;;;;;;7.25;4.45;;;-2.80;99.90;;;;;;5091121;28;20568;-73
2023/01/28 13:10:41;;;;;;;13.05;3.78;;;-2.90;99.90;;;;;;5090722;28;20044;-76
2023/01/28 13:13:15;;;;;;;;;;;-2.90;99.90;;;;;;5086780;28;20532;-76
2023/01/28 13:15:46;;;;;;;13.43;4.05;;;-2.80;99.90;;;;;;5086768;28;19946;-82
2023/01/28 13:18:33;;;;;;;18.60;5.03;;;-2.80;99.90;;;;;;5083716;28;20055;-81
2023/01/28 13:21:05;;;;;;;11.02;4.13;;;-2.80;99.90;;;;;;5087616;28;20051;-75
2023/01/28 13:23:43;;;;;;;3.58;3.25;;;-2.70;99.90;;;;;;5085650;28;20059;-73
2023/01/28 13:26:30;;;;;;;3.60;2.75;;;-2.60;99.90;;;;;;5084613;28;20040;-77
2023/01/28 13:29:22;;;;;;;3.42;2.47;;;-2.70;99.90;;;;;;5084211;28;20048;-76
2023/01/28 13:31:52;;;;;;;8.50;3.42;;;-2.70;99.90;;;;;;5076923;28;20103;-76
2023/01/28 13:34:37;;;;;;;5.75;2.72;;;-2.80;99.90;;;;;;5080258;28;20049;-74
2023/01/28 13:37:18;;;;;;;7.15;3.50;;;-2.80;99.90;;;;;;5085845;28;20055;-75
2023/01/28 13:39:52;;;;;;;2.65;1.98;;;-2.80;99.90;;;;;;5072896;28;20044;-74
2023/01/28 13:42:26;;;;;;;8.02;3.85;;;-2.70;99.90;;;;;;5091030;28;20044;-75
2023/01/28 13:44:56;;;;;;;9.77;3.22;;;-2.80;99.90;;;;;;5088314;28;20208;-75
2023/01/28 13:47:31;;;;;;;3.80;3.08;;;-2.80;99.90;;;;;;5080961;28;20440;-76
2023/01/28 13:50:03;;;;;;;6.22;3.40;;;-2.90;99.90;;;;;;5091169;28;20048;-75